Peralta — WDB9847 — position and weather

sailwx.info

Track history (hours):
 
Tides and Currents Weather Stations Pressure Air Temp Water Temp Dewpoint Dewpoint Depression Visibility Wind Speed Wind Dir Waves Ship Positions

Peralta

Owner: Blue and Gold Fleet, San Francisco, CA. More information available from US FCC via Universal Licensing System and Coast Guard Vessel Documentation Center.

Last reported at 2017-Oct-17 02:01 UTC. Time now 2017-Oct-17 02:21 UTC.
Position N 37°44' W 122°15'.

Length 33 m; draft 2.5 m.

Type: Passenger vessel. MMSI: 366983830.

Date/timePositionNaut miles runAvg speedWind from/ knotsBaromVisibWave heightAir tempDewpointWater temp
2017-Oct-17 02:01N 37°44' W 122°15'714.5
2017-Oct-17 01:30N 37°48' W 122°23'714.6
2017-Oct-17 01:00N 37°44' W 122°15'714.6
2017-Oct-17 00:31N 37°48' W 122°24'714.6
2017-Oct-17 00:00N 37°44' W 122°15'714.7
2017-Oct-16 23:31N 37°48' W 122°24'0 0.0
2017-Oct-16 23:00N 37°48' W 122°24'0 0.0
2017-Oct-16 22:30N 37°48' W 122°24'0 0.8
2017-Oct-16 22:01N 37°48' W 122°23'5 9.1
2017-Oct-16 21:30N 37°48' W 122°17'5 9.9
2017-Oct-16 21:00N 37°48' W 122°24'1 2.6
2017-Oct-16 20:30N 37°49' W 122°25'0 0.0
2017-Oct-16 20:00N 37°49' W 122°25'0 0.0
2017-Oct-16 19:30N 37°49' W 122°25'0 0.4
2017-Oct-16 19:00N 37°49' W 122°25'1 2.2
2017-Oct-16 18:30N 37°48' W 122°24'0 0.0
2017-Oct-16 18:00N 37°48' W 122°24'0 0.0
2017-Oct-16 17:30N 37°48' W 122°24'0 0.0
2017-Oct-16 17:00N 37°48' W 122°24'0 0.0
2017-Oct-16 16:30N 37°48' W 122°24'0 0.9
2017-Oct-16 16:00N 37°48' W 122°24'714.6
2017-Oct-16 15:31N 37°44' W 122°15'714.6
2017-Oct-16 15:00N 37°48' W 122°24'0 0.0
2017-Oct-16 14:01N 37°48' W 122°24'714.5
2017-Oct-16 13:30N 37°44' W 122°15'0 0.0
2017-Oct-16 13:00N 37°44' W 122°15'917.2
2017-Oct-16 12:30N 37°49' W 122°25'0 0.0
2017-Oct-16 12:00N 37°49' W 122°25'0 0.0
2017-Oct-16 06:54N 37°49' W 122°25'2 4.6
2017-Oct-16 06:31N 37°48' W 122°23'4 8.4
2017-Oct-16 06:01N 37°48' W 122°17'5 9.5
2017-Oct-16 05:30N 37°48' W 122°24'0 0.6
2017-Oct-16 05:01N 37°48' W 122°23'5 9.8
2017-Oct-16 04:31N 37°48' W 122°17'2 4.3
2017-Oct-16 04:01N 37°48' W 122°20'4 7.9
2017-Oct-16 03:30N 37°49' W 122°25'612.3
2017-Oct-16 03:00N 37°48' W 122°17'2 3.8
2017-Oct-16 02:30N 37°48' W 122°20'4 8.5
2017-Oct-16 02:00N 37°49' W 122°25'0 0.0
2017-Oct-16 01:31N 37°49' W 122°25'0 0.0
2017-Oct-16 01:00N 37°49' W 122°25'4 8.1
2017-Oct-16 00:31N 37°48' W 122°20'2 3.3
2017-Oct-16 00:00N 37°47' W 122°18'5 9.2
2017-Oct-15 23:30N 37°48' W 122°24'1 2.6
2017-Oct-15 23:00N 37°49' W 122°25'0 0.1
2017-Oct-15 22:30N 37°49' W 122°25'0 0.0
2017-Oct-15 22:00N 37°49' W 122°25'3 6.0
2017-Oct-15 21:31N 37°48' W 122°21'3 6.5
2017-Oct-15 21:00N 37°48' W 122°17'510.2
2017-Oct-15 20:30N 37°48' W 122°24'1 2.6
2017-Oct-15 20:00N 37°49' W 122°25'0 0.0
2017-Oct-15 19:30N 37°49' W 122°25'0 0.0
2017-Oct-15 19:00N 37°49' W 122°25'1 2.6
2017-Oct-15 18:30N 37°48' W 122°23'510.6
2017-Oct-15 18:01N 37°48' W 122°17'2 3.9
2017-Oct-15 17:31N 37°48' W 122°19'4 8.9
2017-Oct-15 17:00N 37°49' W 122°25'1 1.2
2017-Oct-15 16:31N 37°49' W 122°24'611.6
2017-Oct-15 16:01N 37°48' W 122°17'4 8.2
2017-Oct-15 15:31N 37°48' W 122°22'2 4.3
2017-Oct-15 15:00N 37°49' W 122°25'0 0.0
2017-Oct-15 06:52N 37°49' W 122°25'1 4.0
2017-Oct-15 06:31N 37°48' W 122°23'510.2
2017-Oct-15 06:01N 37°48' W 122°17'510.6
2017-Oct-15 05:31N 37°48' W 122°24'1 2.6
2017-Oct-15 05:01N 37°49' W 122°24'611.6
2017-Oct-15 04:31N 37°48' W 122°17'2 3.7
2017-Oct-15 04:01N 37°48' W 122°19'4 8.6
2017-Oct-15 03:30N 37°49' W 122°25'612.8
2017-Oct-15 03:01N 37°48' W 122°17'2 3.8
2017-Oct-15 02:30N 37°48' W 122°19'4 9.0
2017-Oct-15 02:00N 37°49' W 122°25'0 0.0
2017-Oct-15 01:31N 37°49' W 122°25'0 0.0
2017-Oct-15 01:00N 37°49' W 122°25'4 8.2
2017-Oct-15 00:30N 37°48' W 122°20'2 4.3
2017-Oct-15 00:01N 37°48' W 122°17'510.3
2017-Oct-14 23:30N 37°48' W 122°24'1 2.6
2017-Oct-14 23:00N 37°49' W 122°25'0 0.0
2017-Oct-14 22:30N 37°49' W 122°25'0 0.0
2017-Oct-14 22:01N 37°49' W 122°25'3 5.2
2017-Oct-14 21:30N 37°48' W 122°22'3 6.5
2017-Oct-14 21:00N 37°48' W 122°17'5 9.6
2017-Oct-14 20:31N 37°48' W 122°24'1 2.6
2017-Oct-14 20:01N 37°49' W 122°25'0 0.0
2017-Oct-14 19:31N 37°49' W 122°25'0 0.0
2017-Oct-14 19:00N 37°49' W 122°25'1 2.7
2017-Oct-14 18:30N 37°48' W 122°23'510.5
2017-Oct-14 18:00N 37°48' W 122°17'2 3.9
2017-Oct-14 17:31N 37°48' W 122°19'4 8.9
2017-Oct-14 17:00N 37°49' W 122°25'3 5.4
2017-Oct-14 16:31N 37°48' W 122°21'4 7.4
2017-Oct-14 16:00N 37°48' W 122°17'612.6
2017-Oct-14 15:30N 37°49' W 122°25'1 0.1
2017-Oct-14 03:49N 37°48' W 122°24'0 0.2
2017-Oct-14 03:30N 37°48' W 122°24'815.3
2017-Oct-14 03:00N 37°44' W 122°15'714.6
2017-Oct-14 02:30N 37°48' W 122°24'714.6
2017-Oct-14 02:00N 37°44' W 122°15'714.6
2017-Oct-14 01:30N 37°48' W 122°24'714.7
2017-Oct-14 01:01N 37°44' W 122°15'714.6
2017-Oct-14 00:30N 37°48' W 122°24'714.7
2017-Oct-14 00:00N 37°44' W 122°15'714.5
2017-Oct-13 23:30N 37°48' W 122°24'0 0.0
2017-Oct-13 23:00N 37°48' W 122°24'0 0.0
2017-Oct-13 22:30N 37°48' W 122°24'0 0.8
2017-Oct-13 22:00N 37°48' W 122°23'5 9.0
2017-Oct-13 21:30N 37°48' W 122°17'5 9.8
2017-Oct-13 21:00N 37°48' W 122°24'1 2.6
2017-Oct-13 20:30N 37°49' W 122°25'0 0.0
2017-Oct-13 20:00N 37°49' W 122°25'0 0.0
2017-Oct-13 19:31N 37°49' W 122°25'0 0.0
2017-Oct-13 19:00N 37°49' W 122°25'1 2.6
2017-Oct-13 18:30N 37°48' W 122°23'510.3
2017-Oct-13 18:00N 37°48' W 122°17'510.7
2017-Oct-13 17:31N 37°48' W 122°24'1 2.6
2017-Oct-13 17:00N 37°49' W 122°25'0 0.0
2017-Oct-13 16:30N 37°49' W 122°25'1 2.7
2017-Oct-13 16:01N 37°48' W 122°23'714.5
2017-Oct-13 15:30N 37°44' W 122°15'714.6
2017-Oct-13 15:00N 37°48' W 122°24'714.6
2017-Oct-13 14:30N 37°44' W 122°15'714.7
2017-Oct-13 14:01N 37°48' W 122°24'714.6
2017-Oct-13 13:30N 37°44' W 122°15'0 0.0
2017-Oct-13 13:00N 37°44' W 122°15'510.6
2017-Oct-13 12:31N 37°47' W 122°21'3 6.5
2017-Oct-13 12:00N 37°49' W 122°25'0 0.0
2017-Oct-13 05:47N 37°49' W 122°25'312.1
2017-Oct-13 05:31N 37°48' W 122°21'2 4.7
2017-Oct-13 05:01N 37°47' W 122°18'5 9.2
2017-Oct-13 04:30N 37°48' W 122°24'0 0.0
2017-Oct-13 04:00N 37°48' W 122°24'0 0.0
2017-Oct-13 03:30N 37°48' W 122°24'0 0.9
2017-Oct-13 03:01N 37°48' W 122°23'5 9.6
2017-Oct-13 02:30N 37°48' W 122°17'510.1
2017-Oct-13 02:01N 37°48' W 122°23'5 9.7
2017-Oct-13 01:31N 37°48' W 122°17'2 3.7
2017-Oct-13 01:01N 37°48' W 122°20'2 4.3
2017-Oct-13 00:30N 37°48' W 122°22'4 7.2
2017-Oct-13 00:00N 37°48' W 122°18'5 9.2
2017-Oct-12 23:30N 37°48' W 122°24'4 9.0
2017-Oct-12 23:00N 37°48' W 122°18'1 1.7
2017-Oct-12 22:30N 37°48' W 122°19'5 9.4
2017-Oct-12 22:01N 37°49' W 122°25'0 0.5
2017-Oct-12 21:31N 37°49' W 122°25'2 3.6
2017-Oct-12 21:00N 37°48' W 122°23'4 8.5
2017-Oct-12 20:31N 37°48' W 122°17'5 9.9
2017-Oct-12 20:00N 37°48' W 122°24'1 2.5
2017-Oct-12 19:30N 37°49' W 122°25'0 0.0
2017-Oct-12 19:00N 37°49' W 122°25'1 1.8
2017-Oct-12 18:31N 37°49' W 122°24'510.9
2017-Oct-12 18:00N 37°48' W 122°17'510.6
2017-Oct-12 17:30N 37°48' W 122°24'1 2.6
2017-Oct-12 17:00N 37°49' W 122°25'0 0.0
2017-Oct-12 16:23N 37°49' W 122°25'1 3.5
2017-Oct-12 16:00N 37°48' W 122°24'714.5
2017-Oct-12 15:30N 37°44' W 122°15'714.8
2017-Oct-12 15:01N 37°48' W 122°24'714.6
2017-Oct-12 14:30N 37°44' W 122°15'714.6
2017-Oct-12 14:00N 37°48' W 122°24'714.6
2017-Oct-12 13:30N 37°44' W 122°15'0 0.0
2017-Oct-12 13:00N 37°44' W 122°15'611.5
2017-Oct-12 12:31N 37°47' W 122°22'3 5.7
2017-Oct-12 12:01N 37°49' W 122°25'0 0.0
2017-Oct-12 05:45N 37°49' W 122°25'2 6.6
2017-Oct-12 05:31N 37°48' W 122°23'4 8.2
2017-Oct-12 05:00N 37°48' W 122°18'5 9.4
2017-Oct-12 04:30N 37°48' W 122°24'0 0.0
2017-Oct-12 04:00N 37°48' W 122°24'0 0.0
2017-Oct-12 03:30N 37°48' W 122°24'3 6.6
2017-Oct-12 03:00N 37°48' W 122°19'1 2.6
2017-Oct-12 02:30N 37°47' W 122°18'5 9.2
2017-Oct-12 02:00N 37°48' W 122°24'510.6
2017-Oct-12 01:30N 37°48' W 122°17'2 4.9
2017-Oct-12 01:01N 37°48' W 122°20'1 1.3
2017-Oct-12 00:31N 37°48' W 122°21'2 4.9
2017-Oct-12 00:00N 37°47' W 122°18'5 9.3
2017-Oct-11 23:31N 37°48' W 122°24'510.5
2017-Oct-11 23:00N 37°48' W 122°17'2 4.4
2017-Oct-11 22:30N 37°48' W 122°20'4 8.3
2017-Oct-11 22:00N 37°49' W 122°25'0 0.3
2017-Oct-11 21:31N 37°49' W 122°25'0 0.0
2017-Oct-11 21:00N 37°49' W 122°25'0 0.0
2017-Oct-11 20:30N 37°49' W 122°25'0 0.0
2017-Oct-11 20:00N 37°49' W 122°25'0 0.0
2017-Oct-11 19:30N 37°49' W 122°25'0 0.0
2017-Oct-11 19:00N 37°49' W 122°25'1 2.5
2017-Oct-11 18:30N 37°48' W 122°23'510.2
2017-Oct-11 18:00N 37°48' W 122°17'510.7
2017-Oct-11 17:30N 37°48' W 122°24'1 2.6
2017-Oct-11 17:00N 37°49' W 122°25'6 0.3
2017-Oct-11 00:00N 37°47' W 122°18'5 9.2
2017-Oct-10 23:30N 37°48' W 122°24'5 9.1
2017-Oct-10 23:01N 37°48' W 122°18'0 0.5
2017-Oct-10 22:31N 37°47' W 122°18'5 9.8
2017-Oct-10 22:01N 37°49' W 122°24'1 1.1
2017-Oct-10 21:30N 37°49' W 122°25'0 0.0
2017-Oct-10 21:00N 37°49' W 122°25'0 0.0
2017-Oct-10 20:30N 37°49' W 122°25'0 0.0
2017-Oct-10 20:00N 37°49' W 122°25'1 1.7
2017-Oct-10 19:30N 37°48' W 122°24'0 0.3
2017-Oct-10 19:00N 37°48' W 122°24'0 0.0
2017-Oct-10 18:30N 37°48' W 122°24'0 0.0
2017-Oct-10 18:00N 37°48' W 122°24'0 0.0
2017-Oct-10 17:30N 37°48' W 122°24'0 0.0
2017-Oct-10 17:00N 37°48' W 122°24'0 0.0
2017-Oct-10 16:30N 37°48' W 122°24'0 0.9
2017-Oct-10 16:00N 37°48' W 122°24'714.6
2017-Oct-10 15:30N 37°44' W 122°15'714.5
2017-Oct-10 15:00N 37°48' W 122°24'0 0.0
2017-Oct-10 14:00N 37°48' W 122°23'714.6
2017-Oct-10 13:30N 37°44' W 122°15'0 0.0
2017-Oct-10 13:00N 37°44' W 122°15'3 6.0
2017-Oct-10 12:31N 37°45' W 122°19'611.2
2017-Oct-10 12:00N 37°49' W 122°25'0 0.0
2017-Oct-10 05:42N 37°49' W 122°25'1 2.6
2017-Oct-10 05:31N 37°49' W 122°24'612.0
2017-Oct-10 05:00N 37°48' W 122°17'510.7
2017-Oct-10 04:30N 37°48' W 122°24'510.6
2017-Oct-10 04:00N 37°48' W 122°17'0 0.0
2017-Oct-10 03:30N 37°48' W 122°17'0 0.0
2017-Oct-10 03:00N 37°48' W 122°17'0 0.0
2017-Oct-10 02:30N 37°48' W 122°17'5 9.1
2017-Oct-10 02:00N 37°48' W 122°23'3 5.7
2017-Oct-10 01:31N 37°48' W 122°19'1 1.9
2017-Oct-10 01:00N 37°47' W 122°18'5 9.0
2017-Oct-10 00:30N 37°48' W 122°23'510.1
2017-Oct-10 00:00N 37°48' W 122°17'510.2
2017-Oct-09 23:30N 37°48' W 122°24'5 9.2
2017-Oct-09 23:00N 37°48' W 122°18'0 0.6
2017-Oct-09 22:31N 37°47' W 122°18'5 9.5
2017-Oct-09 22:01N 37°49' W 122°24'1 1.5
2017-Oct-09 21:30N 37°49' W 122°25'0 0.0
2017-Oct-09 21:00N 37°49' W 122°25'0 0.0
2017-Oct-09 20:30N 37°49' W 122°25'0 0.0
2017-Oct-09 20:00N 37°49' W 122°25'0 0.0
2017-Oct-09 19:30N 37°49' W 122°25'0 0.0
2017-Oct-09 19:00N 37°49' W 122°25'2 3.0
2017-Oct-09 18:31N 37°48' W 122°23'510.0
2017-Oct-09 18:00N 37°48' W 122°17'510.6
2017-Oct-09 17:30N 37°48' W 122°24'1 2.6
2017-Oct-09 17:00N 37°49' W 122°25'0 0.0
2017-Oct-09 16:30N 37°49' W 122°25'1 2.6
2017-Oct-09 16:00N 37°48' W 122°24'714.7
2017-Oct-09 15:31N 37°44' W 122°15'714.5
2017-Oct-09 15:00N 37°48' W 122°24'714.7
2017-Oct-09 14:30N 37°44' W 122°15'714.6
2017-Oct-09 14:00N 37°48' W 122°24'714.6
2017-Oct-09 13:30N 37°44' W 122°15'0 0.0
2017-Oct-09 13:00N 37°44' W 122°15'917.2
2017-Oct-09 12:30N 37°49' W 122°25'0 0.1
2017-Oct-09 12:00N 37°49' W 122°25'0 0.0
2017-Oct-09 06:59N 37°49' W 122°25'612.2
2017-Oct-09 06:30N 37°48' W 122°18'0 0.5
2017-Oct-09 06:01N 37°47' W 122°18'611.0
2017-Oct-09 05:30N 37°49' W 122°25'0 0.0
2017-Oct-09 05:00N 37°49' W 122°25'0 0.9
2017-Oct-09 04:31N 37°49' W 122°25'612.5
2017-Oct-09 04:01N 37°48' W 122°17'2 4.8
2017-Oct-09 03:31N 37°48' W 122°20'4 8.0
2017-Oct-09 03:01N 37°49' W 122°25'0 0.0
2017-Oct-09 02:30N 37°49' W 122°25'1 2.7
2017-Oct-09 02:01N 37°48' W 122°23'510.5
2017-Oct-09 01:30N 37°48' W 122°17'3 5.1
2017-Oct-09 01:00N 37°48' W 122°20'4 7.6
2017-Oct-09 00:30N 37°49' W 122°25'1 1.4
2017-Oct-09 00:00N 37°49' W 122°24'510.4
2017-Oct-08 23:31N 37°48' W 122°18'0 0.2
2017-Oct-08 23:00N 37°47' W 122°18'5 9.2
2017-Oct-08 22:30N 37°48' W 122°24'510.6
2017-Oct-08 22:00N 37°48' W 122°17'3 6.5
2017-Oct-08 21:31N 37°48' W 122°21'2 4.7
2017-Oct-08 21:00N 37°48' W 122°24'0 0.0
2017-Oct-08 20:30N 37°48' W 122°24'0 0.9
2017-Oct-08 20:00N 37°48' W 122°24'510.6
2017-Oct-08 19:31N 37°48' W 122°17'3 5.4
2017-Oct-08 19:01N 37°48' W 122°20'0 0.0
2017-Oct-08 18:31N 37°48' W 122°20'2 4.2
2017-Oct-08 18:01N 37°48' W 122°18'2 3.7
2017-Oct-08 17:31N 37°48' W 122°20'0 0.2
2017-Oct-08 17:01N 37°48' W 122°20'2 3.7
2017-Oct-08 16:30N 37°47' W 122°18'5 9.2
2017-Oct-08 16:00N 37°48' W 122°24'1 2.6
2017-Oct-08 15:30N 37°49' W 122°25'1 1.8
2017-Oct-08 15:00N 37°48' W 122°24'0 0.0
2017-Oct-08 03:45N 37°48' W 122°24'1 3.0
2017-Oct-08 03:31N 37°49' W 122°24'0 0.9
2017-Oct-08 03:00N 37°49' W 122°25'5 9.2
2017-Oct-08 02:30N 37°48' W 122°19'1 2.2
2017-Oct-08 02:00N 37°47' W 122°18'5 9.2
2017-Oct-08 01:30N 37°48' W 122°24'1 2.9
2017-Oct-08 01:00N 37°49' W 122°24'611.8
2017-Oct-08 00:31N 37°48' W 122°17'0 1.0
2017-Oct-08 00:00N 37°47' W 122°18'611.3
2017-Oct-07 23:31N 37°49' W 122°25'1 1.9
2017-Oct-07 23:00N 37°48' W 122°24'510.4
2017-Oct-07 22:30N 37°48' W 122°17'1 2.5
2017-Oct-07 22:01N 37°48' W 122°19'510.0
2017-Oct-07 21:30N 37°49' W 122°25'1 1.3
2017-Oct-07 21:00N 37°49' W 122°24'510.5
2017-Oct-07 20:30N 37°48' W 122°18'0 0.3
2017-Oct-07 20:01N 37°47' W 122°18'5 9.6
2017-Oct-07 19:30N 37°49' W 122°24'1 1.8
2017-Oct-07 19:00N 37°48' W 122°24'510.6
2017-Oct-07 18:31N 37°48' W 122°17'2 4.0
2017-Oct-07 18:00N 37°48' W 122°19'4 8.8
2017-Oct-07 17:31N 37°49' W 122°25'0 0.9
2017-Oct-07 17:01N 37°49' W 122°24'1 0.1
2017-Oct-07 03:46N 37°48' W 122°24'0 0.8
2017-Oct-07 03:30N 37°48' W 122°24'815.2
2017-Oct-07 03:01N 37°44' W 122°15'714.6
2017-Oct-07 02:30N 37°48' W 122°24'  
Track history (hours):
 
Tides and Currents Weather Stations Pressure Air Temp Water Temp Dewpoint Dewpoint Depression Visibility Wind Speed Wind Dir Waves Ship Positions

Peralta

Owner: Blue and Gold Fleet, San Francisco, CA. More information available from US FCC via Universal Licensing System and Coast Guard Vessel Documentation Center.

Last reported at 2017-Oct-17 02:01 UTC. Time now 2017-Oct-17 02:21 UTC.
Position N 37°44' W 122°15'.

Length 33 m; draft 2.5 m.

Type: Passenger vessel. MMSI: 366983830.

Date/timePositionNaut miles runAvg speedWind from/ knotsBaromVisibWave heightAir tempDewpointWater temp
2017-Oct-17 02:01N 37°44' W 122°15'714.5
2017-Oct-17 01:30N 37°48' W 122°23'714.6
2017-Oct-17 01:00N 37°44' W 122°15'714.6
2017-Oct-17 00:31N 37°48' W 122°24'714.6
2017-Oct-17 00:00N 37°44' W 122°15'714.7
2017-Oct-16 23:31N 37°48' W 122°24'0 0.0
2017-Oct-16 23:00N 37°48' W 122°24'0 0.0
2017-Oct-16 22:30N 37°48' W 122°24'0 0.8
2017-Oct-16 22:01N 37°48' W 122°23'5 9.1
2017-Oct-16 21:30N 37°48' W 122°17'5 9.9
2017-Oct-16 21:00N 37°48' W 122°24'1 2.6
2017-Oct-16 20:30N 37°49' W 122°25'0 0.0
2017-Oct-16 20:00N 37°49' W 122°25'0 0.0
2017-Oct-16 19:30N 37°49' W 122°25'0 0.4
2017-Oct-16 19:00N 37°49' W 122°25'1 2.2
2017-Oct-16 18:30N 37°48' W 122°24'0 0.0
2017-Oct-16 18:00N 37°48' W 122°24'0 0.0
2017-Oct-16 17:30N 37°48' W 122°24'0 0.0
2017-Oct-16 17:00N 37°48' W 122°24'0 0.0
2017-Oct-16 16:30N 37°48' W 122°24'0 0.9
2017-Oct-16 16:00N 37°48' W 122°24'714.6
2017-Oct-16 15:31N 37°44' W 122°15'714.6
2017-Oct-16 15:00N 37°48' W 122°24'0 0.0
2017-Oct-16 14:01N 37°48' W 122°24'714.5
2017-Oct-16 13:30N 37°44' W 122°15'0 0.0
2017-Oct-16 13:00N 37°44' W 122°15'917.2
2017-Oct-16 12:30N 37°49' W 122°25'0 0.0
2017-Oct-16 12:00N 37°49' W 122°25'0 0.0
2017-Oct-16 06:54N 37°49' W 122°25'2 4.6
2017-Oct-16 06:31N 37°48' W 122°23'4 8.4
2017-Oct-16 06:01N 37°48' W 122°17'5 9.5
2017-Oct-16 05:30N 37°48' W 122°24'0 0.6
2017-Oct-16 05:01N 37°48' W 122°23'5 9.8
2017-Oct-16 04:31N 37°48' W 122°17'2 4.3
2017-Oct-16 04:01N 37°48' W 122°20'4 7.9
2017-Oct-16 03:30N 37°49' W 122°25'612.3
2017-Oct-16 03:00N 37°48' W 122°17'2 3.8
2017-Oct-16 02:30N 37°48' W 122°20'4 8.5
2017-Oct-16 02:00N 37°49' W 122°25'0 0.0
2017-Oct-16 01:31N 37°49' W 122°25'0 0.0
2017-Oct-16 01:00N 37°49' W 122°25'4 8.1
2017-Oct-16 00:31N 37°48' W 122°20'2 3.3
2017-Oct-16 00:00N 37°47' W 122°18'5 9.2
2017-Oct-15 23:30N 37°48' W 122°24'1 2.6
2017-Oct-15 23:00N 37°49' W 122°25'0 0.1
2017-Oct-15 22:30N 37°49' W 122°25'0 0.0
2017-Oct-15 22:00N 37°49' W 122°25'3 6.0
2017-Oct-15 21:31N 37°48' W 122°21'3 6.5
2017-Oct-15 21:00N 37°48' W 122°17'510.2
2017-Oct-15 20:30N 37°48' W 122°24'1 2.6
2017-Oct-15 20:00N 37°49' W 122°25'0 0.0
2017-Oct-15 19:30N 37°49' W 122°25'0 0.0
2017-Oct-15 19:00N 37°49' W 122°25'1 2.6
2017-Oct-15 18:30N 37°48' W 122°23'510.6
2017-Oct-15 18:01N 37°48' W 122°17'2 3.9
2017-Oct-15 17:31N 37°48' W 122°19'4 8.9
2017-Oct-15 17:00N 37°49' W 122°25'1 1.2
2017-Oct-15 16:31N 37°49' W 122°24'611.6
2017-Oct-15 16:01N 37°48' W 122°17'4 8.2
2017-Oct-15 15:31N 37°48' W 122°22'2 4.3
2017-Oct-15 15:00N 37°49' W 122°25'0 0.0
2017-Oct-15 06:52N 37°49' W 122°25'1 4.0
2017-Oct-15 06:31N 37°48' W 122°23'510.2
2017-Oct-15 06:01N 37°48' W 122°17'510.6
2017-Oct-15 05:31N 37°48' W 122°24'1 2.6
2017-Oct-15 05:01N 37°49' W 122°24'611.6
2017-Oct-15 04:31N 37°48' W 122°17'2 3.7
2017-Oct-15 04:01N 37°48' W 122°19'4 8.6
2017-Oct-15 03:30N 37°49' W 122°25'612.8
2017-Oct-15 03:01N 37°48' W 122°17'2 3.8
2017-Oct-15 02:30N 37°48' W 122°19'4 9.0
2017-Oct-15 02:00N 37°49' W 122°25'0 0.0
2017-Oct-15 01:31N 37°49' W 122°25'0 0.0
2017-Oct-15 01:00N 37°49' W 122°25'4 8.2
2017-Oct-15 00:30N 37°48' W 122°20'2 4.3
2017-Oct-15 00:01N 37°48' W 122°17'510.3
2017-Oct-14 23:30N 37°48' W 122°24'1 2.6
2017-Oct-14 23:00N 37°49' W 122°25'0 0.0
2017-Oct-14 22:30N 37°49' W 122°25'0 0.0
2017-Oct-14 22:01N 37°49' W 122°25'3 5.2
2017-Oct-14 21:30N 37°48' W 122°22'3 6.5
2017-Oct-14 21:00N 37°48' W 122°17'5 9.6
2017-Oct-14 20:31N 37°48' W 122°24'1 2.6
2017-Oct-14 20:01N 37°49' W 122°25'0 0.0
2017-Oct-14 19:31N 37°49' W 122°25'0 0.0
2017-Oct-14 19:00N 37°49' W 122°25'1 2.7
2017-Oct-14 18:30N 37°48' W 122°23'510.5
2017-Oct-14 18:00N 37°48' W 122°17'2 3.9
2017-Oct-14 17:31N 37°48' W 122°19'4 8.9
2017-Oct-14 17:00N 37°49' W 122°25'3 5.4
2017-Oct-14 16:31N 37°48' W 122°21'4 7.4
2017-Oct-14 16:00N 37°48' W 122°17'612.6
2017-Oct-14 15:30N 37°49' W 122°25'1 0.1
2017-Oct-14 03:49N 37°48' W 122°24'0 0.2
2017-Oct-14 03:30N 37°48' W 122°24'815.3
2017-Oct-14 03:00N 37°44' W 122°15'714.6
2017-Oct-14 02:30N 37°48' W 122°24'714.6
2017-Oct-14 02:00N 37°44' W 122°15'714.6
2017-Oct-14 01:30N 37°48' W 122°24'714.7
2017-Oct-14 01:01N 37°44' W 122°15'714.6
2017-Oct-14 00:30N 37°48' W 122°24'714.7
2017-Oct-14 00:00N 37°44' W 122°15'714.5
2017-Oct-13 23:30N 37°48' W 122°24'0 0.0
2017-Oct-13 23:00N 37°48' W 122°24'0 0.0
2017-Oct-13 22:30N 37°48' W 122°24'0 0.8
2017-Oct-13 22:00N 37°48' W 122°23'5 9.0
2017-Oct-13 21:30N 37°48' W 122°17'5 9.8
2017-Oct-13 21:00N 37°48' W 122°24'1 2.6
2017-Oct-13 20:30N 37°49' W 122°25'0 0.0
2017-Oct-13 20:00N 37°49' W 122°25'0 0.0
2017-Oct-13 19:31N 37°49' W 122°25'0 0.0
2017-Oct-13 19:00N 37°49' W 122°25'1 2.6
2017-Oct-13 18:30N 37°48' W 122°23'510.3
2017-Oct-13 18:00N 37°48' W 122°17'510.7
2017-Oct-13 17:31N 37°48' W 122°24'1 2.6
2017-Oct-13 17:00N 37°49' W 122°25'0 0.0
2017-Oct-13 16:30N 37°49' W 122°25'1 2.7
2017-Oct-13 16:01N 37°48' W 122°23'714.5
2017-Oct-13 15:30N 37°44' W 122°15'714.6
2017-Oct-13 15:00N 37°48' W 122°24'714.6
2017-Oct-13 14:30N 37°44' W 122°15'714.7
2017-Oct-13 14:01N 37°48' W 122°24'714.6
2017-Oct-13 13:30N 37°44' W 122°15'0 0.0
2017-Oct-13 13:00N 37°44' W 122°15'510.6
2017-Oct-13 12:31N 37°47' W 122°21'3 6.5
2017-Oct-13 12:00N 37°49' W 122°25'0 0.0
2017-Oct-13 05:47N 37°49' W 122°25'312.1
2017-Oct-13 05:31N 37°48' W 122°21'2 4.7
2017-Oct-13 05:01N 37°47' W 122°18'5 9.2
2017-Oct-13 04:30N 37°48' W 122°24'0 0.0
2017-Oct-13 04:00N 37°48' W 122°24'0 0.0
2017-Oct-13 03:30N 37°48' W 122°24'0 0.9
2017-Oct-13 03:01N 37°48' W 122°23'5 9.6
2017-Oct-13 02:30N 37°48' W 122°17'510.1
2017-Oct-13 02:01N 37°48' W 122°23'5 9.7
2017-Oct-13 01:31N 37°48' W 122°17'2 3.7
2017-Oct-13 01:01N 37°48' W 122°20'2 4.3
2017-Oct-13 00:30N 37°48' W 122°22'4 7.2
2017-Oct-13 00:00N 37°48' W 122°18'5 9.2
2017-Oct-12 23:30N 37°48' W 122°24'4 9.0
2017-Oct-12 23:00N 37°48' W 122°18'1 1.7
2017-Oct-12 22:30N 37°48' W 122°19'5 9.4
2017-Oct-12 22:01N 37°49' W 122°25'0 0.5
2017-Oct-12 21:31N 37°49' W 122°25'2 3.6
2017-Oct-12 21:00N 37°48' W 122°23'4 8.5
2017-Oct-12 20:31N 37°48' W 122°17'5 9.9
2017-Oct-12 20:00N 37°48' W 122°24'1 2.5
2017-Oct-12 19:30N 37°49' W 122°25'0 0.0
2017-Oct-12 19:00N 37°49' W 122°25'1 1.8
2017-Oct-12 18:31N 37°49' W 122°24'510.9
2017-Oct-12 18:00N 37°48' W 122°17'510.6
2017-Oct-12 17:30N 37°48' W 122°24'1 2.6
2017-Oct-12 17:00N 37°49' W 122°25'0 0.0
2017-Oct-12 16:23N 37°49' W 122°25'1 3.5
2017-Oct-12 16:00N 37°48' W 122°24'714.5
2017-Oct-12 15:30N 37°44' W 122°15'714.8
2017-Oct-12 15:01N 37°48' W 122°24'714.6
2017-Oct-12 14:30N 37°44' W 122°15'714.6
2017-Oct-12 14:00N 37°48' W 122°24'714.6
2017-Oct-12 13:30N 37°44' W 122°15'0 0.0
2017-Oct-12 13:00N 37°44' W 122°15'611.5
2017-Oct-12 12:31N 37°47' W 122°22'3 5.7
2017-Oct-12 12:01N 37°49' W 122°25'0 0.0
2017-Oct-12 05:45N 37°49' W 122°25'2 6.6
2017-Oct-12 05:31N 37°48' W 122°23'4 8.2
2017-Oct-12 05:00N 37°48' W 122°18'5 9.4
2017-Oct-12 04:30N 37°48' W 122°24'0 0.0
2017-Oct-12 04:00N 37°48' W 122°24'0 0.0
2017-Oct-12 03:30N 37°48' W 122°24'3 6.6
2017-Oct-12 03:00N 37°48' W 122°19'1 2.6
2017-Oct-12 02:30N 37°47' W 122°18'5 9.2
2017-Oct-12 02:00N 37°48' W 122°24'510.6
2017-Oct-12 01:30N 37°48' W 122°17'2 4.9
2017-Oct-12 01:01N 37°48' W 122°20'1 1.3
2017-Oct-12 00:31N 37°48' W 122°21'2 4.9
2017-Oct-12 00:00N 37°47' W 122°18'5 9.3
2017-Oct-11 23:31N 37°48' W 122°24'510.5
2017-Oct-11 23:00N 37°48' W 122°17'2 4.4
2017-Oct-11 22:30N 37°48' W 122°20'4 8.3
2017-Oct-11 22:00N 37°49' W 122°25'0 0.3
2017-Oct-11 21:31N 37°49' W 122°25'0 0.0
2017-Oct-11 21:00N 37°49' W 122°25'0 0.0
2017-Oct-11 20:30N 37°49' W 122°25'0 0.0
2017-Oct-11 20:00N 37°49' W 122°25'0 0.0
2017-Oct-11 19:30N 37°49' W 122°25'0 0.0
2017-Oct-11 19:00N 37°49' W 122°25'1 2.5
2017-Oct-11 18:30N 37°48' W 122°23'510.2
2017-Oct-11 18:00N 37°48' W 122°17'510.7
2017-Oct-11 17:30N 37°48' W 122°24'1 2.6
2017-Oct-11 17:00N 37°49' W 122°25'6 0.3
2017-Oct-11 00:00N 37°47' W 122°18'5 9.2
2017-Oct-10 23:30N 37°48' W 122°24'5 9.1
2017-Oct-10 23:01N 37°48' W 122°18'0 0.5
2017-Oct-10 22:31N 37°47' W 122°18'5 9.8
2017-Oct-10 22:01N 37°49' W 122°24'1 1.1
2017-Oct-10 21:30N 37°49' W 122°25'0 0.0
2017-Oct-10 21:00N 37°49' W 122°25'0 0.0
2017-Oct-10 20:30N 37°49' W 122°25'0 0.0
2017-Oct-10 20:00N 37°49' W 122°25'1 1.7
2017-Oct-10 19:30N 37°48' W 122°24'0 0.3
2017-Oct-10 19:00N 37°48' W 122°24'0 0.0
2017-Oct-10 18:30N 37°48' W 122°24'0 0.0
2017-Oct-10 18:00N 37°48' W 122°24'0 0.0
2017-Oct-10 17:30N 37°48' W 122°24'0 0.0
2017-Oct-10 17:00N 37°48' W 122°24'0 0.0
2017-Oct-10 16:30N 37°48' W 122°24'0 0.9
2017-Oct-10 16:00N 37°48' W 122°24'714.6
2017-Oct-10 15:30N 37°44' W 122°15'714.5
2017-Oct-10 15:00N 37°48' W 122°24'0 0.0
2017-Oct-10 14:00N 37°48' W 122°23'714.6
2017-Oct-10 13:30N 37°44' W 122°15'0 0.0
2017-Oct-10 13:00N 37°44' W 122°15'3 6.0
2017-Oct-10 12:31N 37°45' W 122°19'611.2
2017-Oct-10 12:00N 37°49' W 122°25'0 0.0
2017-Oct-10 05:42N 37°49' W 122°25'1 2.6
2017-Oct-10 05:31N 37°49' W 122°24'612.0
2017-Oct-10 05:00N 37°48' W 122°17'510.7
2017-Oct-10 04:30N 37°48' W 122°24'510.6
2017-Oct-10 04:00N 37°48' W 122°17'0 0.0
2017-Oct-10 03:30N 37°48' W 122°17'0 0.0
2017-Oct-10 03:00N 37°48' W 122°17'0 0.0
2017-Oct-10 02:30N 37°48' W 122°17'5 9.1
2017-Oct-10 02:00N 37°48' W 122°23'3 5.7
2017-Oct-10 01:31N 37°48' W 122°19'1 1.9
2017-Oct-10 01:00N 37°47' W 122°18'5 9.0
2017-Oct-10 00:30N 37°48' W 122°23'510.1
2017-Oct-10 00:00N 37°48' W 122°17'510.2
2017-Oct-09 23:30N 37°48' W 122°24'5 9.2
2017-Oct-09 23:00N 37°48' W 122°18'0 0.6
2017-Oct-09 22:31N 37°47' W 122°18'5 9.5
2017-Oct-09 22:01N 37°49' W 122°24'1 1.5
2017-Oct-09 21:30N 37°49' W 122°25'0 0.0
2017-Oct-09 21:00N 37°49' W 122°25'0 0.0
2017-Oct-09 20:30N 37°49' W 122°25'0 0.0
2017-Oct-09 20:00N 37°49' W 122°25'0 0.0
2017-Oct-09 19:30N 37°49' W 122°25'0 0.0
2017-Oct-09 19:00N 37°49' W 122°25'2 3.0
2017-Oct-09 18:31N 37°48' W 122°23'510.0
2017-Oct-09 18:00N 37°48' W 122°17'510.6
2017-Oct-09 17:30N 37°48' W 122°24'1 2.6
2017-Oct-09 17:00N 37°49' W 122°25'0 0.0
2017-Oct-09 16:30N 37°49' W 122°25'1 2.6
2017-Oct-09 16:00N 37°48' W 122°24'714.7
2017-Oct-09 15:31N 37°44' W 122°15'714.5
2017-Oct-09 15:00N 37°48' W 122°24'714.7
2017-Oct-09 14:30N 37°44' W 122°15'714.6
2017-Oct-09 14:00N 37°48' W 122°24'714.6
2017-Oct-09 13:30N 37°44' W 122°15'0 0.0
2017-Oct-09 13:00N 37°44' W 122°15'917.2
2017-Oct-09 12:30N 37°49' W 122°25'0 0.1
2017-Oct-09 12:00N 37°49' W 122°25'0 0.0
2017-Oct-09 06:59N 37°49' W 122°25'612.2
2017-Oct-09 06:30N 37°48' W 122°18'0 0.5
2017-Oct-09 06:01N 37°47' W 122°18'611.0
2017-Oct-09 05:30N 37°49' W 122°25'0 0.0
2017-Oct-09 05:00N 37°49' W 122°25'0 0.9
2017-Oct-09 04:31N 37°49' W 122°25'612.5
2017-Oct-09 04:01N 37°48' W 122°17'2 4.8
2017-Oct-09 03:31N 37°48' W 122°20'4 8.0
2017-Oct-09 03:01N 37°49' W 122°25'0 0.0
2017-Oct-09 02:30N 37°49' W 122°25'1 2.7
2017-Oct-09 02:01N 37°48' W 122°23'510.5
2017-Oct-09 01:30N 37°48' W 122°17'3 5.1
2017-Oct-09 01:00N 37°48' W 122°20'4 7.6
2017-Oct-09 00:30N 37°49' W 122°25'1 1.4
2017-Oct-09 00:00N 37°49' W 122°24'510.4
2017-Oct-08 23:31N 37°48' W 122°18'0 0.2
2017-Oct-08 23:00N 37°47' W 122°18'5 9.2
2017-Oct-08 22:30N 37°48' W 122°24'510.6
2017-Oct-08 22:00N 37°48' W 122°17'3 6.5
2017-Oct-08 21:31N 37°48' W 122°21'2 4.7
2017-Oct-08 21:00N 37°48' W 122°24'0 0.0
2017-Oct-08 20:30N 37°48' W 122°24'0 0.9
2017-Oct-08 20:00N 37°48' W 122°24'510.6
2017-Oct-08 19:31N 37°48' W 122°17'3 5.4
2017-Oct-08 19:01N 37°48' W 122°20'0 0.0
2017-Oct-08 18:31N 37°48' W 122°20'2 4.2
2017-Oct-08 18:01N 37°48' W 122°18'2 3.7
2017-Oct-08 17:31N 37°48' W 122°20'0 0.2
2017-Oct-08 17:01N 37°48' W 122°20'2 3.7
2017-Oct-08 16:30N 37°47' W 122°18'5 9.2
2017-Oct-08 16:00N 37°48' W 122°24'1 2.6
2017-Oct-08 15:30N 37°49' W 122°25'1 1.8
2017-Oct-08 15:00N 37°48' W 122°24'0 0.0
2017-Oct-08 03:45N 37°48' W 122°24'1 3.0
2017-Oct-08 03:31N 37°49' W 122°24'0 0.9
2017-Oct-08 03:00N 37°49' W 122°25'5 9.2
2017-Oct-08 02:30N 37°48' W 122°19'1 2.2
2017-Oct-08 02:00N 37°47' W 122°18'5 9.2
2017-Oct-08 01:30N 37°48' W 122°24'1 2.9
2017-Oct-08 01:00N 37°49' W 122°24'611.8
2017-Oct-08 00:31N 37°48' W 122°17'0 1.0
2017-Oct-08 00:00N 37°47' W 122°18'611.3
2017-Oct-07 23:31N 37°49' W 122°25'1 1.9
2017-Oct-07 23:00N 37°48' W 122°24'510.4
2017-Oct-07 22:30N 37°48' W 122°17'1 2.5
2017-Oct-07 22:01N 37°48' W 122°19'510.0
2017-Oct-07 21:30N 37°49' W 122°25'1 1.3
2017-Oct-07 21:00N 37°49' W 122°24'510.5
2017-Oct-07 20:30N 37°48' W 122°18'0 0.3
2017-Oct-07 20:01N 37°47' W 122°18'5 9.6
2017-Oct-07 19:30N 37°49' W 122°24'1 1.8
2017-Oct-07 19:00N 37°48' W 122°24'510.6
2017-Oct-07 18:31N 37°48' W 122°17'2 4.0
2017-Oct-07 18:00N 37°48' W 122°19'4 8.8
2017-Oct-07 17:31N 37°49' W 122°25'0 0.9
2017-Oct-07 17:01N 37°49' W 122°24'1 0.1
2017-Oct-07 03:46N 37°48' W 122°24'0 0.8
2017-Oct-07 03:30N 37°48' W 122°24'815.2
2017-Oct-07 03:01N 37°44' W 122°15'714.6
2017-Oct-07 02:30N 37°48' W 122°24'  

Dump ship's entire track history